Ship Status Report: callsign TAMOURE

sailwx.info

Track history (hours):
 
Tides and Currents Weather Stations Pressure Air Temp Water Temp Dewpoint Dewpoint Depression Visibility Wind Speed Wind Dir Waves Ship Positions

Callsign TAMOURE (name unknown)

Last reported at 2017-Sep-22 16:00 UTC. Time now 2017-Sep-24 10:42 UTC.
Position N 33°06' W 016°18'.

Barometer 1019.4 mb

Date/timePositionNaut miles runAvg speedWind from/ knotsBaromVisibWave heightAir tempDewpointWater temp
2017-Sep-22 16:00N 33°06' W 016°18'5 2.5 1019.4
2017-Sep-22 14:00N 33°06' W 016°12'6 6.0 1020.4
2017-Sep-22 13:00N 33°12' W 016°12'5 5.0 1020.8
2017-Sep-22 12:00N 33°12' W 016°06'8 3.9 1021.1
2017-Sep-22 10:00N 33°18' W 016°00'16 5.2 1021.4
2017-Sep-22 07:00N 33°30' W 015°48'6 6.0 1020.3
2017-Sep-22 06:00N 33°36' W 015°48'8 7.8 1020.0
2017-Sep-22 05:00N 33°42' W 015°42'6 6.0 1019.8
2017-Sep-22 04:00N 33°48' W 015°42'8 3.9 1019.9
2017-Sep-22 02:00N 33°54' W 015°36'8 7.8 1020.6
2017-Sep-22 01:00N 34°00' W 015°30'8 7.8 1021.1
2017-Sep-22 00:00N 34°06' W 015°24'6 6.0 1021.1
2017-Sep-21 23:00N 34°12' W 015°24'5 5.0 1021.4
2017-Sep-21 22:00N 34°12' W 015°18'6 6.0 1021.7
2017-Sep-21 21:00N 34°18' W 015°18'8 7.8 1021.4
2017-Sep-21 20:00N 34°24' W 015°12'6 6.0 1021.2
2017-Sep-21 19:00N 34°30' W 015°12'5 4.9 1020.9
2017-Sep-21 18:00N 34°30' W 015°06'8 7.8 1020.7
2017-Sep-21 17:00N 34°36' W 015°00'8 3.9 1020.3
2017-Sep-21 15:00N 34°42' W 014°54'6 6.0 1020.2
2017-Sep-21 14:00N 34°48' W 014°54'8 7.8 1020.5
2017-Sep-21 13:00N 34°54' W 014°48'8 3.9 1020.9
2017-Sep-21 11:00N 35°00' W 014°42'6 6.0 1021.4
2017-Sep-21 10:00N 35°06' W 014°42'5 4.9 1021.2
2017-Sep-21 09:00N 35°06' W 014°36'6 6.0 1021.1
2017-Sep-21 08:00N 35°12' W 014°36'5 4.9 1020.4
2017-Sep-21 07:00N 35°12' W 014°30'8 7.7 1020.3
2017-Sep-21 06:00N 35°18' W 014°24'5 2.4 1019.6
2017-Sep-21 04:00N 35°18' W 014°18'8 7.7 1019.6
2017-Sep-21 03:00N 35°24' W 014°12'0 0.0 1019.5
2017-Sep-21 02:00N 35°24' W 014°12'8 7.7
2017-Sep-21 01:00N 35°30' W 014°06'5 4.9
2017-Sep-21 00:00N 35°30' W 014°00'6 6.0 1020.0
2017-Sep-20 23:00N 35°36' W 014°00'8 7.7 1020.7
2017-Sep-20 22:00N 35°42' W 013°54'5 4.9 1020.5
2017-Sep-20 21:00N 35°42' W 013°48'8 7.7 1020.4
2017-Sep-20 20:00N 35°48' W 013°42'0 0.0 1019.9
2017-Sep-20 19:00N 35°48' W 013°42'8 7.7 1019.7
2017-Sep-20 18:00N 35°54' W 013°36'8 7.7 1019.9
2017-Sep-20 17:00N 36°00' W 013°30'5 4.9 1019.9
2017-Sep-20 16:00N 36°00' W 013°24'15 5.1 1019.9
2017-Sep-20 13:00N 36°12' W 013°12'6 6.0 1021.2
2017-Sep-20 12:00N 36°18' W 013°12'5 4.8 1021.5
2017-Sep-20 11:00N 36°18' W 013°06'8 7.7 1021.8
2017-Sep-20 10:00N 36°24' W 013°00'8 3.9 1022.0
2017-Sep-20 08:00N 36°30' W 012°54'0 0.0 1021.8
2017-Sep-20 07:00N 36°30' W 012°54'8 7.7 1021.7
2017-Sep-20 06:00N 36°36' W 012°48'5 4.8 1021.4
2017-Sep-20 05:00N 36°36' W 012°42'6 6.0 1021.1
2017-Sep-20 04:00N 36°42' W 012°42'5 4.8 1021.5
2017-Sep-20 03:00N 36°42' W 012°36'8 7.7 1022.0
2017-Sep-20 02:00N 36°48' W 012°30'0 0.0 1022.4
2017-Sep-20 01:00N 36°48' W 012°30'5 4.8 1022.9
2017-Sep-20 00:00N 36°48' W 012°24'8 7.7 1023.3
2017-Sep-19 23:00N 36°54' W 012°18'5 4.8 1023.8
2017-Sep-19 22:00N 36°54' W 012°12'8 7.7 1024.3
2017-Sep-19 21:00N 37°00' W 012°06'0 0.0 1024.0
2017-Sep-19 20:00N 37°00' W 012°06'8 7.7 1023.7
2017-Sep-19 19:00N 37°06' W 012°00'11 5.6 1023.5
2017-Sep-19 17:00N 37°12' W 011°48'8 3.8 1023.4
2017-Sep-19 15:00N 37°18' W 011°42'11 5.6 1023.7
2017-Sep-19 13:00N 37°24' W 011°30'0 0.0 1024.7
2017-Sep-19 12:00N 37°24' W 011°30'8 7.7 1025.2
2017-Sep-19 11:00N 37°30' W 011°24'5 4.8 1025.5
2017-Sep-19 10:00N 37°30' W 011°18'8 3.8 1025.5
2017-Sep-19 08:00N 37°36' W 011°12'8 7.7 1025.1
2017-Sep-19 07:00N 37°42' W 011°06'5 4.7 1024.7
2017-Sep-19 06:00N 37°42' W 011°00'8 7.6 1024.3
2017-Sep-19 05:00N 37°48' W 010°54'5 4.7 1023.8
2017-Sep-19 04:00N 37°48' W 010°48'6 6.0 1023.8
2017-Sep-19 03:00N 37°54' W 010°48'8 7.6 1023.8
2017-Sep-19 02:00N 38°00' W 010°42'5 4.7 1024.2
2017-Sep-19 01:00N 38°00' W 010°36'8 7.6 1024.6
2017-Sep-19 00:00N 38°06' W 010°30'5 4.7 1024.8
2017-Sep-18 23:00N 38°06' W 010°24'6 6.0 1025.1
2017-Sep-18 22:00N 38°12' W 010°24'5 4.7 1025.3
2017-Sep-18 21:00N 38°12' W 010°18'11 5.6 1025.2
2017-Sep-18 19:00N 38°18' W 010°06'8 7.6 1024.2
2017-Sep-18 18:00N 38°24' W 010°00'5 4.7 1024.0
2017-Sep-18 17:00N 38°24' W 009°54'1111.1 1023.7
2017-Sep-18 16:00N 38°30' W 009°42'5 4.7 1023.3
2017-Sep-18 15:00N 38°30' W 009°36'8 7.6 1023.2
2017-Sep-18 14:00N 38°36' W 009°30'8 7.6 1023.1
2017-Sep-18 13:00N 38°42' W 009°24'0 0.0 1022.9
2017-Sep-18 12:00N 38°42' W 009°24'0 0.0 1023.1
2017-Sep-17 17:00N 38°42' W 009°24'0 0.0 1020.7
2017-Sep-17 16:00N 38°42' W 009°24'14 7.0 1020.5
2017-Sep-17 14:00N 38°42' W 009°06'6 6.0 1019.6
2017-Sep-17 13:00N 38°48' W 009°06'0 0.0 1020.2
2017-Sep-17 12:00N 38°48' W 009°06'  
Track history (hours):
 
Tides and Currents Weather Stations Pressure Air Temp Water Temp Dewpoint Dewpoint Depression Visibility Wind Speed Wind Dir Waves Ship Positions

Callsign TAMOURE (name unknown)

Last reported at 2017-Sep-22 16:00 UTC. Time now 2017-Sep-24 10:42 UTC.
Position N 33°06' W 016°18'.

Barometer 1019.4 mb

Date/timePositionNaut miles runAvg speedWind from/ knotsBaromVisibWave heightAir tempDewpointWater temp
2017-Sep-22 16:00N 33°06' W 016°18'5 2.5 1019.4
2017-Sep-22 14:00N 33°06' W 016°12'6 6.0 1020.4
2017-Sep-22 13:00N 33°12' W 016°12'5 5.0 1020.8
2017-Sep-22 12:00N 33°12' W 016°06'8 3.9 1021.1
2017-Sep-22 10:00N 33°18' W 016°00'16 5.2 1021.4
2017-Sep-22 07:00N 33°30' W 015°48'6 6.0 1020.3
2017-Sep-22 06:00N 33°36' W 015°48'8 7.8 1020.0
2017-Sep-22 05:00N 33°42' W 015°42'6 6.0 1019.8
2017-Sep-22 04:00N 33°48' W 015°42'8 3.9 1019.9
2017-Sep-22 02:00N 33°54' W 015°36'8 7.8 1020.6
2017-Sep-22 01:00N 34°00' W 015°30'8 7.8 1021.1
2017-Sep-22 00:00N 34°06' W 015°24'6 6.0 1021.1
2017-Sep-21 23:00N 34°12' W 015°24'5 5.0 1021.4
2017-Sep-21 22:00N 34°12' W 015°18'6 6.0 1021.7
2017-Sep-21 21:00N 34°18' W 015°18'8 7.8 1021.4
2017-Sep-21 20:00N 34°24' W 015°12'6 6.0 1021.2
2017-Sep-21 19:00N 34°30' W 015°12'5 4.9 1020.9
2017-Sep-21 18:00N 34°30' W 015°06'8 7.8 1020.7
2017-Sep-21 17:00N 34°36' W 015°00'8 3.9 1020.3
2017-Sep-21 15:00N 34°42' W 014°54'6 6.0 1020.2
2017-Sep-21 14:00N 34°48' W 014°54'8 7.8 1020.5
2017-Sep-21 13:00N 34°54' W 014°48'8 3.9 1020.9
2017-Sep-21 11:00N 35°00' W 014°42'6 6.0 1021.4
2017-Sep-21 10:00N 35°06' W 014°42'5 4.9 1021.2
2017-Sep-21 09:00N 35°06' W 014°36'6 6.0 1021.1
2017-Sep-21 08:00N 35°12' W 014°36'5 4.9 1020.4
2017-Sep-21 07:00N 35°12' W 014°30'8 7.7 1020.3
2017-Sep-21 06:00N 35°18' W 014°24'5 2.4 1019.6
2017-Sep-21 04:00N 35°18' W 014°18'8 7.7 1019.6
2017-Sep-21 03:00N 35°24' W 014°12'0 0.0 1019.5
2017-Sep-21 02:00N 35°24' W 014°12'8 7.7
2017-Sep-21 01:00N 35°30' W 014°06'5 4.9
2017-Sep-21 00:00N 35°30' W 014°00'6 6.0 1020.0
2017-Sep-20 23:00N 35°36' W 014°00'8 7.7 1020.7
2017-Sep-20 22:00N 35°42' W 013°54'5 4.9 1020.5
2017-Sep-20 21:00N 35°42' W 013°48'8 7.7 1020.4
2017-Sep-20 20:00N 35°48' W 013°42'0 0.0 1019.9
2017-Sep-20 19:00N 35°48' W 013°42'8 7.7 1019.7
2017-Sep-20 18:00N 35°54' W 013°36'8 7.7 1019.9
2017-Sep-20 17:00N 36°00' W 013°30'5 4.9 1019.9
2017-Sep-20 16:00N 36°00' W 013°24'15 5.1 1019.9
2017-Sep-20 13:00N 36°12' W 013°12'6 6.0 1021.2
2017-Sep-20 12:00N 36°18' W 013°12'5 4.8 1021.5
2017-Sep-20 11:00N 36°18' W 013°06'8 7.7 1021.8
2017-Sep-20 10:00N 36°24' W 013°00'8 3.9 1022.0
2017-Sep-20 08:00N 36°30' W 012°54'0 0.0 1021.8
2017-Sep-20 07:00N 36°30' W 012°54'8 7.7 1021.7
2017-Sep-20 06:00N 36°36' W 012°48'5 4.8 1021.4
2017-Sep-20 05:00N 36°36' W 012°42'6 6.0 1021.1
2017-Sep-20 04:00N 36°42' W 012°42'5 4.8 1021.5
2017-Sep-20 03:00N 36°42' W 012°36'8 7.7 1022.0
2017-Sep-20 02:00N 36°48' W 012°30'0 0.0 1022.4
2017-Sep-20 01:00N 36°48' W 012°30'5 4.8 1022.9
2017-Sep-20 00:00N 36°48' W 012°24'8 7.7 1023.3
2017-Sep-19 23:00N 36°54' W 012°18'5 4.8 1023.8
2017-Sep-19 22:00N 36°54' W 012°12'8 7.7 1024.3
2017-Sep-19 21:00N 37°00' W 012°06'0 0.0 1024.0
2017-Sep-19 20:00N 37°00' W 012°06'8 7.7 1023.7
2017-Sep-19 19:00N 37°06' W 012°00'11 5.6 1023.5
2017-Sep-19 17:00N 37°12' W 011°48'8 3.8 1023.4
2017-Sep-19 15:00N 37°18' W 011°42'11 5.6 1023.7
2017-Sep-19 13:00N 37°24' W 011°30'0 0.0 1024.7
2017-Sep-19 12:00N 37°24' W 011°30'8 7.7 1025.2
2017-Sep-19 11:00N 37°30' W 011°24'5 4.8 1025.5
2017-Sep-19 10:00N 37°30' W 011°18'8 3.8 1025.5
2017-Sep-19 08:00N 37°36' W 011°12'8 7.7 1025.1
2017-Sep-19 07:00N 37°42' W 011°06'5 4.7 1024.7
2017-Sep-19 06:00N 37°42' W 011°00'8 7.6 1024.3
2017-Sep-19 05:00N 37°48' W 010°54'5 4.7 1023.8
2017-Sep-19 04:00N 37°48' W 010°48'6 6.0 1023.8
2017-Sep-19 03:00N 37°54' W 010°48'8 7.6 1023.8
2017-Sep-19 02:00N 38°00' W 010°42'5 4.7 1024.2
2017-Sep-19 01:00N 38°00' W 010°36'8 7.6 1024.6
2017-Sep-19 00:00N 38°06' W 010°30'5 4.7 1024.8
2017-Sep-18 23:00N 38°06' W 010°24'6 6.0 1025.1
2017-Sep-18 22:00N 38°12' W 010°24'5 4.7 1025.3
2017-Sep-18 21:00N 38°12' W 010°18'11 5.6 1025.2
2017-Sep-18 19:00N 38°18' W 010°06'8 7.6 1024.2
2017-Sep-18 18:00N 38°24' W 010°00'5 4.7 1024.0
2017-Sep-18 17:00N 38°24' W 009°54'1111.1 1023.7
2017-Sep-18 16:00N 38°30' W 009°42'5 4.7 1023.3
2017-Sep-18 15:00N 38°30' W 009°36'8 7.6 1023.2
2017-Sep-18 14:00N 38°36' W 009°30'8 7.6 1023.1
2017-Sep-18 13:00N 38°42' W 009°24'0 0.0 1022.9
2017-Sep-18 12:00N 38°42' W 009°24'0 0.0 1023.1
2017-Sep-17 17:00N 38°42' W 009°24'0 0.0 1020.7
2017-Sep-17 16:00N 38°42' W 009°24'14 7.0 1020.5
2017-Sep-17 14:00N 38°42' W 009°06'6 6.0 1019.6
2017-Sep-17 13:00N 38°48' W 009°06'0 0.0 1020.2
2017-Sep-17 12:00N 38°48' W 009°06'  

Dump ship's entire track history